sensor_id;sensor_type;location;lat;lon;timestamp;pressure;altitude;pressure_sealevel;temperature;humidity
61814;BME280;57055;-35.296;149.168;2023-04-19T00:00:24;95478.24;;;11.90;63.11
61814;BME280;57055;-35.296;149.168;2023-04-19T00:02:53;95475.23;;;12.08;62.44
61814;BME280;57055;-35.296;149.168;2023-04-19T00:05:22;95474.60;;;12.27;61.76
61814;BME280;57055;-35.296;149.168;2023-04-19T00:07:52;95470.38;;;12.21;61.30
61814;BME280;57055;-35.296;149.168;2023-04-19T00:10:21;95472.55;;;12.35;60.85
61814;BME280;57055;-35.296;149.168;2023-04-19T00:12:50;95475.99;;;12.47;61.09
61814;BME280;57055;-35.296;149.168;2023-04-19T00:15:19;95471.66;;;12.40;61.24
61814;BME280;57055;-35.296;149.168;2023-04-19T00:17:47;95468.71;;;12.53;60.75
61814;BME280;57055;-35.296;149.168;2023-04-19T00:20:16;95465.00;;;12.66;60.22
61814;BME280;57055;-35.296;149.168;2023-04-19T00:22:44;95457.37;;;12.77;60.04
61814;BME280;57055;-35.296;149.168;2023-04-19T00:25:13;95459.50;;;12.81;59.76
61814;BME280;57055;-35.296;149.168;2023-04-19T00:27:42;95456.73;;;12.94;59.75
61814;BME280;57055;-35.296;149.168;2023-04-19T00:30:11;95457.44;;;13.14;59.91
61814;BME280;57055;-35.296;149.168;2023-04-19T00:32:41;95453.75;;;13.06;59.81
61814;BME280;57055;-35.296;149.168;2023-04-19T00:35:10;95451.94;;;13.46;59.21
61814;BME280;57055;-35.296;149.168;2023-04-19T00:37:39;95448.10;;;13.48;58.84
61814;BME280;57055;-35.296;149.168;2023-04-19T00:40:08;95445.93;;;13.61;58.64
61814;BME280;57055;-35.296;149.168;2023-04-19T00:42:38;95448.00;;;13.74;58.55
61814;BME280;57055;-35.296;149.168;2023-04-19T00:45:08;95447.76;;;13.85;57.75
61814;BME280;57055;-35.296;149.168;2023-04-19T00:47:37;95441.38;;;13.48;56.80
61814;BME280;57055;-35.296;149.168;2023-04-19T00:50:07;95434.96;;;13.72;57.12
61814;BME280;57055;-35.296;149.168;2023-04-19T00:52:37;95431.45;;;13.80;57.14
61814;BME280;57055;-35.296;149.168;2023-04-19T00:55:06;95429.57;;;13.74;57.31
61814;BME280;57055;-35.296;149.168;2023-04-19T00:57:37;95425.93;;;13.92;55.62
61814;BME280;57055;-35.296;149.168;2023-04-19T01:00:06;95425.88;;;14.26;55.28
61814;BME280;57055;-35.296;149.168;2023-04-19T01:02:36;95421.29;;;14.43;55.36
61814;BME280;57055;-35.296;149.168;2023-04-19T01:05:05;95418.26;;;14.38;55.30
61814;BME280;57055;-35.296;149.168;2023-04-19T01:07:34;95417.41;;;14.54;53.74
61814;BME280;57055;-35.296;149.168;2023-04-19T01:10:03;95419.30;;;14.37;52.83
61814;BME280;57055;-35.296;149.168;2023-04-19T01:12:33;95420.99;;;14.72;52.49
61814;BME280;57055;-35.296;149.168;2023-04-19T01:15:02;95418.69;;;14.76;52.39
61814;BME280;57055;-35.296;149.168;2023-04-19T01:17:32;95417.07;;;14.96;52.09
61814;BME280;57055;-35.296;149.168;2023-04-19T01:20:03;95409.98;;;14.88;51.74
61814;BME280;57055;-35.296;149.168;2023-04-19T01:22:32;95408.23;;;15.00;51.43
61814;BME280;57055;-35.296;149.168;2023-04-19T01:25:01;95401.10;;;15.15;51.40
61814;BME280;57055;-35.296;149.168;2023-04-19T01:27:30;95394.92;;;15.21;49.19
61814;BME280;57055;-35.296;149.168;2023-04-19T01:29:59;95390.57;;;15.06;49.30
61814;BME280;57055;-35.296;149.168;2023-04-19T01:32:28;95389.14;;;15.23;48.96
61814;BME280;57055;-35.296;149.168;2023-04-19T01:34:57;95384.23;;;15.30;49.28
61814;BME280;57055;-35.296;149.168;2023-04-19T01:37:26;95377.92;;;15.34;49.42
61814;BME280;57055;-35.296;149.168;2023-04-19T01:39:54;95374.75;;;15.39;48.78
61814;BME280;57055;-35.296;149.168;2023-04-19T01:42:23;95372.07;;;15.52;49.22
61814;BME280;57055;-35.296;149.168;2023-04-19T01:44:51;95367.65;;;15.66;48.82
61814;BME280;57055;-35.296;149.168;2023-04-19T01:47:20;95365.13;;;15.84;48.84
61814;BME280;57055;-35.296;149.168;2023-04-19T01:49:50;95365.06;;;15.82;48.62
61814;BME280;57055;-35.296;149.168;2023-04-19T01:52:18;95359.11;;;15.90;48.47
61814;BME280;57055;-35.296;149.168;2023-04-19T01:54:47;95352.41;;;16.07;48.27
61814;BME280;57055;-35.296;149.168;2023-04-19T01:57:15;95350.35;;;16.07;48.32
61814;BME280;57055;-35.296;149.168;2023-04-19T01:59:44;95345.33;;;15.80;48.34
61814;BME280;57055;-35.296;149.168;2023-04-19T02:02:13;95347.57;;;15.97;48.45
61814;BME280;57055;-35.296;149.168;2023-04-19T02:04:42;95347.54;;;16.29;48.10
61814;BME280;57055;-35.296;149.168;2023-04-19T02:07:10;95348.50;;;16.38;46.70
61814;BME280;57055;-35.296;149.168;2023-04-19T02:09:39;95344.72;;;16.28;47.01
61814;BME280;57055;-35.296;149.168;2023-04-19T02:12:08;95342.66;;;16.64;46.08
61814;BME280;57055;-35.296;149.168;2023-04-19T02:14:37;95336.37;;;16.18;46.00
61814;BME280;57055;-35.296;149.168;2023-04-19T02:17:06;95334.36;;;16.49;44.66
61814;BME280;57055;-35.296;149.168;2023-04-19T02:19:35;95329.82;;;16.50;43.83
61814;BME280;57055;-35.296;149.168;2023-04-19T02:22:03;95326.31;;;16.31;44.29
61814;BME280;57055;-35.296;149.168;2023-04-19T02:24:32;95328.24;;;16.27;44.65
61814;BME280;57055;-35.296;149.168;2023-04-19T02:27:01;95321.81;;;16.61;44.51
61814;BME280;57055;-35.296;149.168;2023-04-19T02:29:29;95320.45;;;16.75;43.56
61814;BME280;57055;-35.296;149.168;2023-04-19T02:31:58;95314.44;;;16.51;43.22
61814;BME280;57055;-35.296;149.168;2023-04-19T02:34:28;95308.30;;;16.73;43.36
61814;BME280;57055;-35.296;149.168;2023-04-19T02:36:57;95300.67;;;16.71;43.19
61814;BME280;57055;-35.296;149.168;2023-04-19T02:39:25;95298.65;;;16.78;43.13
61814;BME280;57055;-35.296;149.168;2023-04-19T02:41:55;95294.98;;;16.92;42.16
61814;BME280;57055;-35.296;149.168;2023-04-19T02:44:24;95294.20;;;16.95;42.16
61814;BME280;57055;-35.296;149.168;2023-04-19T02:46:53;95291.65;;;17.03;41.76
61814;BME280;57055;-35.296;149.168;2023-04-19T02:49:22;95285.93;;;17.12;41.07
61814;BME280;57055;-35.296;149.168;2023-04-19T02:51:51;95278.72;;;17.12;41.24
61814;BME280;57055;-35.296;149.168;2023-04-19T02:54:20;95271.58;;;17.18;41.21
61814;BME280;57055;-35.296;149.168;2023-04-19T02:56:48;95269.33;;;17.20;41.14
61814;BME280;57055;-35.296;149.168;2023-04-19T02:59:17;95265.42;;;17.15;41.13
61814;BME280;57055;-35.296;149.168;2023-04-19T03:01:46;95257.97;;;17.14;40.82
61814;BME280;57055;-35.296;149.168;2023-04-19T03:04:14;95257.83;;;17.36;41.18
61814;BME280;57055;-35.296;149.168;2023-04-19T03:06:43;95254.65;;;17.13;40.88
61814;BME280;57055;-35.296;149.168;2023-04-19T03:09:11;95254.36;;;17.41;41.66
61814;BME280;57055;-35.296;149.168;2023-04-19T03:11:40;95254.89;;;17.11;42.34
61814;BME280;57055;-35.296;149.168;2023-04-19T03:14:08;95247.24;;;17.21;42.55
61814;BME280;57055;-35.296;149.168;2023-04-19T03:16:37;95237.68;;;17.36;42.35
61814;BME280;57055;-35.296;149.168;2023-04-19T03:19:06;95231.17;;;17.31;42.23
61814;BME280;57055;-35.296;149.168;2023-04-19T03:21:35;95236.34;;;17.51;42.58
61814;BME280;57055;-35.296;149.168;2023-04-19T03:24:04;95233.02;;;17.44;42.31
61814;BME280;57055;-35.296;149.168;2023-04-19T03:26:33;95232.20;;;17.50;42.21
61814;BME280;57055;-35.296;149.168;2023-04-19T03:29:01;95227.74;;;17.60;41.76
61814;BME280;57055;-35.296;149.168;2023-04-19T03:31:30;95228.51;;;17.89;41.61
61814;BME280;57055;-35.296;149.168;2023-04-19T03:33:58;95222.10;;;17.75;41.58
61814;BME280;57055;-35.296;149.168;2023-04-19T03:36:27;95218.86;;;17.66;41.51
61814;BME280;57055;-35.296;149.168;2023-04-19T03:38:56;95219.34;;;17.88;41.62
61814;BME280;57055;-35.296;149.168;2023-04-19T03:41:26;95220.75;;;17.69;41.30
61814;BME280;57055;-35.296;149.168;2023-04-19T03:43:54;95215.07;;;17.85;41.30
61814;BME280;57055;-35.296;149.168;2023-04-19T03:46:23;95215.09;;;17.97;41.48
61814;BME280;57055;-35.296;149.168;2023-04-19T03:48:51;95210.64;;;17.69;41.09
61814;BME280;57055;-35.296;149.168;2023-04-19T03:51:21;95212.77;;;17.93;41.63
61814;BME280;57055;-35.296;149.168;2023-04-19T03:53:49;95212.85;;;17.88;41.22
61814;BME280;57055;-35.296;149.168;2023-04-19T03:56:18;95213.86;;;18.00;41.36
61814;BME280;57055;-35.296;149.168;2023-04-19T03:58:46;95211.02;;;18.21;41.11
61814;BME280;57055;-35.296;149.168;2023-04-19T04:01:19;95205.25;;;18.15;41.00
61814;BME280;57055;-35.296;149.168;2023-04-19T04:03:48;95201.57;;;18.13;40.83
61814;BME280;57055;-35.296;149.168;2023-04-19T04:06:16;95196.30;;;18.22;40.97
61814;BME280;57055;-35.296;149.168;2023-04-19T04:08:45;95197.68;;;18.16;41.26
61814;BME280;57055;-35.296;149.168;2023-04-19T04:11:13;95203.38;;;18.21;41.35
61814;BME280;57055;-35.296;149.168;2023-04-19T04:13:42;95201.00;;;18.18;41.52
61814;BME280;57055;-35.296;149.168;2023-04-19T04:16:11;95203.73;;;18.10;42.00
61814;BME280;57055;-35.296;149.168;2023-04-19T04:18:40;95205.83;;;18.22;41.38
61814;BME280;57055;-35.296;149.168;2023-04-19T04:21:08;95205.00;;;18.14;41.89
61814;BME280;57055;-35.296;149.168;2023-04-19T04:23:37;95208.05;;;17.89;42.58
61814;BME280;57055;-35.296;149.168;2023-04-19T04:26:06;95202.68;;;18.19;41.94
61814;BME280;57055;-35.296;149.168;2023-04-19T04:28:35;95204.26;;;18.19;41.68
61814;BME280;57055;-35.296;149.168;2023-04-19T04:31:04;95196.72;;;18.21;40.92
61814;BME280;57055;-35.296;149.168;2023-04-19T04:33:33;95200.79;;;17.65;41.88
61814;BME280;57055;-35.296;149.168;2023-04-19T04:36:01;95197.41;;;17.75;42.29
61814;BME280;57055;-35.296;149.168;2023-04-19T04:38:30;95193.95;;;17.42;42.21
61814;BME280;57055;-35.296;149.168;2023-04-19T04:40:59;95194.84;;;17.78;42.36
61814;BME280;57055;-35.296;149.168;2023-04-19T04:43:28;95190.73;;;17.65;41.92
61814;BME280;57055;-35.296;149.168;2023-04-19T04:45:57;95193.52;;;17.47;42.37
61814;BME280;57055;-35.296;149.168;2023-04-19T04:48:26;95190.04;;;17.51;43.01
61814;BME280;57055;-35.296;149.168;2023-04-19T04:50:55;95194.70;;;17.50;42.59
61814;BME280;57055;-35.296;149.168;2023-04-19T04:53:26;95195.91;;;17.52;42.14
61814;BME280;57055;-35.296;149.168;2023-04-19T04:55:55;95199.09;;;17.91;41.78
61814;BME280;57055;-35.296;149.168;2023-04-19T04:58:23;95199.87;;;18.01;41.62
61814;BME280;57055;-35.296;149.168;2023-04-19T05:00:52;95199.94;;;17.66;42.07
61814;BME280;57055;-35.296;149.168;2023-04-19T05:03:21;95199.34;;;17.73;41.94
61814;BME280;57055;-35.296;149.168;2023-04-19T05:05:50;95192.63;;;17.84;41.23
61814;BME280;57055;-35.296;149.168;2023-04-19T05:08:18;95195.10;;;17.65;41.40
61814;BME280;57055;-35.296;149.168;2023-04-19T05:10:47;95200.14;;;17.81;41.48
61814;BME280;57055;-35.296;149.168;2023-04-19T05:13:16;95202.62;;;17.92;41.62
61814;BME280;57055;-35.296;149.168;2023-04-19T05:15:45;95201.10;;;17.83;41.66
61814;BME280;57055;-35.296;149.168;2023-04-19T05:18:13;95202.29;;;17.93;42.22
61814;BME280;57055;-35.296;149.168;2023-04-19T05:20:42;95205.36;;;17.91;42.63
61814;BME280;57055;-35.296;149.168;2023-04-19T05:23:11;95203.28;;;17.72;42.57
61814;BME280;57055;-35.296;149.168;2023-04-19T05:25:40;95206.55;;;17.78;42.83
61814;BME280;57055;-35.296;149.168;2023-04-19T05:28:08;95208.22;;;18.07;42.59
61814;BME280;57055;-35.296;149.168;2023-04-19T05:30:37;95211.25;;;17.74;42.71
61814;BME280;57055;-35.296;149.168;2023-04-19T05:33:05;95212.43;;;17.83;43.35
61814;BME280;57055;-35.296;149.168;2023-04-19T05:35:35;95213.56;;;17.48;43.82
61814;BME280;57055;-35.296;149.168;2023-04-19T05:38:03;95213.92;;;17.72;43.73
61814;BME280;57055;-35.296;149.168;2023-04-19T05:40:33;95213.42;;;17.65;43.70
61814;BME280;57055;-35.296;149.168;2023-04-19T05:43:01;95219.32;;;17.37;43.78
61814;BME280;57055;-35.296;149.168;2023-04-19T05:45:30;95220.07;;;17.43;43.99
61814;BME280;57055;-35.296;149.168;2023-04-19T05:47:59;95221.30;;;17.43;43.89
61814;BME280;57055;-35.296;149.168;2023-04-19T05:50:28;95219.60;;;17.48;43.66
61814;BME280;57055;-35.296;149.168;2023-04-19T05:52:57;95221.44;;;17.71;43.88
61814;BME280;57055;-35.296;149.168;2023-04-19T05:55:28;95218.58;;;17.84;44.08
61814;BME280;57055;-35.296;149.168;2023-04-19T05:57:57;95220.59;;;17.79;44.31
61814;BME280;57055;-35.296;149.168;2023-04-19T06:00:26;95218.23;;;17.31;44.33
61814;BME280;57055;-35.296;149.168;2023-04-19T06:02:55;95216.66;;;17.88;44.10
61814;BME280;57055;-35.296;149.168;2023-04-19T06:05:24;95215.83;;;17.69;44.07
61814;BME280;57055;-35.296;149.168;2023-04-19T06:07:52;95215.44;;;17.81;44.67
61814;BME280;57055;-35.296;149.168;2023-04-19T06:10:21;95213.51;;;17.51;44.03
61814;BME280;57055;-35.296;149.168;2023-04-19T06:12:50;95213.43;;;17.24;44.08
61814;BME280;57055;-35.296;149.168;2023-04-19T06:15:18;95212.95;;;17.15;44.31
61814;BME280;57055;-35.296;149.168;2023-04-19T06:17:47;95214.02;;;17.51;44.51
61814;BME280;57055;-35.296;149.168;2023-04-19T06:20:15;95214.60;;;17.50;44.63
61814;BME280;57055;-35.296;149.168;2023-04-19T06:22:45;95212.36;;;17.48;45.05
61814;BME280;57055;-35.296;149.168;2023-04-19T06:25:14;95211.53;;;17.44;44.78
61814;BME280;57055;-35.296;149.168;2023-04-19T06:27:42;95215.45;;;17.42;44.92
61814;BME280;57055;-35.296;149.168;2023-04-19T06:30:11;95212.85;;;16.90;45.06
61814;BME280;57055;-35.296;149.168;2023-04-19T06:32:40;95211.68;;;17.28;45.20
61814;BME280;57055;-35.296;149.168;2023-04-19T06:35:09;95211.38;;;17.27;45.64
61814;BME280;57055;-35.296;149.168;2023-04-19T06:37:38;95212.92;;;17.21;45.55
61814;BME280;57055;-35.296;149.168;2023-04-19T06:40:08;95217.35;;;16.95;45.55
61814;BME280;57055;-35.296;149.168;2023-04-19T06:42:37;95220.18;;;16.88;45.75
61814;BME280;57055;-35.296;149.168;2023-04-19T06:45:07;95224.79;;;17.01;46.07
61814;BME280;57055;-35.296;149.168;2023-04-19T06:47:37;95225.63;;;16.94;46.27
61814;BME280;57055;-35.296;149.168;2023-04-19T06:50:06;95225.62;;;16.78;46.55
61814;BME280;57055;-35.296;149.168;2023-04-19T06:52:36;95224.20;;;16.90;46.94
61814;BME280;57055;-35.296;149.168;2023-04-19T06:55:06;95219.74;;;16.62;47.17
61814;BME280;57055;-35.296;149.168;2023-04-19T06:57:35;95222.76;;;16.60;47.29
61814;BME280;57055;-35.296;149.168;2023-04-19T07:00:05;95222.20;;;16.59;47.53
61814;BME280;57055;-35.296;149.168;2023-04-19T07:02:34;95221.65;;;16.50;47.76
61814;BME280;57055;-35.296;149.168;2023-04-19T07:05:03;95226.67;;;16.65;47.48
61814;BME280;57055;-35.296;149.168;2023-04-19T07:07:33;95223.95;;;16.34;47.81
61814;BME280;57055;-35.296;149.168;2023-04-19T07:10:01;95223.36;;;16.32;47.92
61814;BME280;57055;-35.296;149.168;2023-04-19T07:12:30;95226.34;;;16.46;48.27
61814;BME280;57055;-35.296;149.168;2023-04-19T07:14:58;95228.90;;;16.40;48.31
61814;BME280;57055;-35.296;149.168;2023-04-19T07:17:27;95228.52;;;16.33;48.39
61814;BME280;57055;-35.296;149.168;2023-04-19T07:19:55;95229.82;;;16.31;48.42
61814;BME280;57055;-35.296;149.168;2023-04-19T07:22:24;95233.66;;;16.22;48.62
61814;BME280;57055;-35.296;149.168;2023-04-19T07:24:53;95234.04;;;16.39;49.02
61814;BME280;57055;-35.296;149.168;2023-04-19T07:27:22;95230.95;;;16.20;49.83
61814;BME280;57055;-35.296;149.168;2023-04-19T07:29:51;95230.57;;;16.10;50.35
61814;BME280;57055;-35.296;149.168;2023-04-19T07:32:20;95230.20;;;15.99;50.59
61814;BME280;57055;-35.296;149.168;2023-04-19T07:34:48;95233.14;;;16.01;51.04
61814;BME280;57055;-35.296;149.168;2023-04-19T07:37:17;95233.58;;;15.74;51.08
61814;BME280;57055;-35.296;149.168;2023-04-19T07:39:46;95232.62;;;15.98;50.83
61814;BME280;57055;-35.296;149.168;2023-04-19T07:42:14;95233.78;;;15.78;50.56
61814;BME280;57055;-35.296;149.168;2023-04-19T07:44:43;95237.31;;;15.52;50.24
61814;BME280;57055;-35.296;149.168;2023-04-19T07:47:12;95239.05;;;15.85;49.85
61814;BME280;57055;-35.296;149.168;2023-04-19T07:49:41;95242.30;;;15.78;49.30
61814;BME280;57055;-35.296;149.168;2023-04-19T07:52:09;95247.77;;;15.66;50.05
61814;BME280;57055;-35.296;149.168;2023-04-19T07:54:38;95250.96;;;15.53;50.40
61814;BME280;57055;-35.296;149.168;2023-04-19T07:57:06;95254.93;;;15.27;51.45
61814;BME280;57055;-35.296;149.168;2023-04-19T07:59:36;95259.15;;;15.10;52.26
61814;BME280;57055;-35.296;149.168;2023-04-19T08:02:05;95257.52;;;15.35;52.68
61814;BME280;57055;-35.296;149.168;2023-04-19T08:04:33;95260.54;;;14.92;53.12
61814;BME280;57055;-35.296;149.168;2023-04-19T08:07:02;95265.65;;;14.89;52.90
61814;BME280;57055;-35.296;149.168;2023-04-19T08:09:32;95270.43;;;15.08;53.15
61814;BME280;57055;-35.296;149.168;2023-04-19T08:12:01;95273.35;;;14.76;53.07
61814;BME280;57055;-35.296;149.168;2023-04-19T08:14:29;95277.82;;;14.92;53.41
61814;BME280;57055;-35.296;149.168;2023-04-19T08:16:58;95278.71;;;14.90;53.19
61814;BME280;57055;-35.296;149.168;2023-04-19T08:19:27;95283.64;;;14.90;53.50
61814;BME280;57055;-35.296;149.168;2023-04-19T08:21:56;95289.52;;;15.02;53.30
61814;BME280;57055;-35.296;149.168;2023-04-19T08:24:24;95294.95;;;14.72;53.53
61814;BME280;57055;-35.296;149.168;2023-04-19T08:26:53;95301.12;;;14.62;53.38
61814;BME280;57055;-35.296;149.168;2023-04-19T08:29:22;95303.61;;;14.80;53.60
61814;BME280;57055;-35.296;149.168;2023-04-19T08:31:51;95311.50;;;14.50;54.53
61814;BME280;57055;-35.296;149.168;2023-04-19T08:34:19;95315.97;;;14.48;54.41
61814;BME280;57055;-35.296;149.168;2023-04-19T08:36:48;95325.18;;;14.52;54.38
61814;BME280;57055;-35.296;149.168;2023-04-19T08:39:17;95330.83;;;14.50;54.65
61814;BME280;57055;-35.296;149.168;2023-04-19T08:41:46;95335.45;;;14.44;55.02
61814;BME280;57055;-35.296;149.168;2023-04-19T08:44:16;95344.99;;;14.24;55.40
61814;BME280;57055;-35.296;149.168;2023-04-19T08:46:47;95346.67;;;14.38;55.84
61814;BME280;57055;-35.296;149.168;2023-04-19T08:49:17;95352.17;;;14.37;55.51
61814;BME280;57055;-35.296;149.168;2023-04-19T08:51:47;95350.92;;;14.44;54.25
61814;BME280;57055;-35.296;149.168;2023-04-19T08:54:16;95354.14;;;14.69;53.57
61814;BME280;57055;-35.296;149.168;2023-04-19T08:56:45;95358.90;;;14.54;53.60
61814;BME280;57055;-35.296;149.168;2023-04-19T08:59:14;95362.22;;;14.54;53.77
61814;BME280;57055;-35.296;149.168;2023-04-19T09:01:43;95362.70;;;14.61;53.58
61814;BME280;57055;-35.296;149.168;2023-04-19T09:04:11;95367.92;;;14.59;53.78
61814;BME280;57055;-35.296;149.168;2023-04-19T09:06:40;95373.36;;;14.72;53.77
61814;BME280;57055;-35.296;149.168;2023-04-19T09:09:19;95382.45;;;14.39;54.15
61814;BME280;57055;-35.296;149.168;2023-04-19T09:11:48;95387.75;;;14.62;54.65
61814;BME280;57055;-35.296;149.168;2023-04-19T09:14:19;95395.12;;;14.60;54.75
61814;BME280;57055;-35.296;149.168;2023-04-19T09:16:48;95403.32;;;14.78;54.65
61814;BME280;57055;-35.296;149.168;2023-04-19T09:19:18;95406.81;;;14.83;54.96
61814;BME280;57055;-35.296;149.168;2023-04-19T09:21:47;95412.41;;;14.90;55.23
61814;BME280;57055;-35.296;149.168;2023-04-19T09:24:16;95411.44;;;14.55;55.46
61814;BME280;57055;-35.296;149.168;2023-04-19T09:26:53;95411.06;;;14.78;55.89
61814;BME280;57055;-35.296;149.168;2023-04-19T09:29:23;95416.31;;;14.76;56.16
61814;BME280;57055;-35.296;149.168;2023-04-19T09:31:59;95415.22;;;14.66;56.33
61814;BME280;57055;-35.296;149.168;2023-04-19T09:34:29;95417.93;;;14.68;56.23
61814;BME280;57055;-35.296;149.168;2023-04-19T09:37:11;95421.64;;;14.59;56.44
61814;BME280;57055;-35.296;149.168;2023-04-19T09:39:40;95424.03;;;14.61;56.64
61814;BME280;57055;-35.296;149.168;2023-04-19T09:42:09;95424.83;;;14.51;56.76
61814;BME280;57055;-35.296;149.168;2023-04-19T09:44:37;95424.42;;;14.76;56.67
61814;BME280;57055;-35.296;149.168;2023-04-19T09:47:22;95434.13;;;14.38;57.25
61814;BME280;57055;-35.296;149.168;2023-04-19T09:50:05;95437.54;;;14.36;57.06
61814;BME280;57055;-35.296;149.168;2023-04-19T09:52:35;95447.22;;;14.35;57.15
61814;BME280;57055;-35.296;149.168;2023-04-19T09:55:06;95451.45;;;14.27;57.27
61814;BME280;57055;-35.296;149.168;2023-04-19T09:57:35;95453.66;;;14.18;57.65
61814;BME280;57055;-35.296;149.168;2023-04-19T10:00:05;95455.58;;;14.08;57.90
61814;BME280;57055;-35.296;149.168;2023-04-19T10:02:34;95461.38;;;14.16;58.34
61814;BME280;57055;-35.296;149.168;2023-04-19T10:05:04;95463.58;;;14.17;58.37
61814;BME280;57055;-35.296;149.168;2023-04-19T10:07:34;95467.84;;;13.98;58.29
61814;BME280;57055;-35.296;149.168;2023-04-19T10:10:04;95474.61;;;14.16;58.49
61814;BME280;57055;-35.296;149.168;2023-04-19T10:12:35;95478.09;;;14.16;58.34
61814;BME280;57055;-35.296;149.168;2023-04-19T10:15:06;95480.33;;;13.96;58.36
61814;BME280;57055;-35.296;149.168;2023-04-19T10:17:37;95486.30;;;14.34;58.71
61814;BME280;57055;-35.296;149.168;2023-04-19T10:20:09;95486.48;;;14.04;59.04
61814;BME280;57055;-35.296;149.168;2023-04-19T10:22:40;95487.63;;;14.27;58.88
61814;BME280;57055;-35.296;149.168;2023-04-19T10:25:11;95490.94;;;14.07;58.58
61814;BME280;57055;-35.296;149.168;2023-04-19T10:27:40;95492.25;;;14.22;58.89
61814;BME280;57055;-35.296;149.168;2023-04-19T10:30:17;95496.01;;;14.19;58.92
61814;BME280;57055;-35.296;149.168;2023-04-19T10:32:52;95500.88;;;14.18;58.95
61814;BME280;57055;-35.296;149.168;2023-04-19T10:35:22;95504.77;;;13.88;59.00
61814;BME280;57055;-35.296;149.168;2023-04-19T10:38:09;95503.78;;;13.76;59.39
61814;BME280;57055;-35.296;149.168;2023-04-19T10:41:11;95508.81;;;13.92;59.70
61814;BME280;57055;-35.296;149.168;2023-04-19T10:43:40;95508.41;;;13.87;59.86
61814;BME280;57055;-35.296;149.168;2023-04-19T10:46:12;95507.96;;;14.01;60.02
61814;BME280;57055;-35.296;149.168;2023-04-19T10:48:51;95508.05;;;13.46;60.17
61814;BME280;57055;-35.296;149.168;2023-04-19T10:51:23;95509.95;;;13.54;60.51
61814;BME280;57055;-35.296;149.168;2023-04-19T10:53:56;95509.64;;;13.66;60.06
61814;BME280;57055;-35.296;149.168;2023-04-19T10:56:59;95512.49;;;13.54;59.81
61814;BME280;57055;-35.296;149.168;2023-04-19T10:59:30;95515.26;;;13.76;59.84
61814;BME280;57055;-35.296;149.168;2023-04-19T11:02:02;95517.97;;;13.74;59.81
61814;BME280;57055;-35.296;149.168;2023-04-19T11:05:04;95520.51;;;13.93;59.80
61814;BME280;57055;-35.296;149.168;2023-04-19T11:07:41;95523.10;;;13.55;60.31
61814;BME280;57055;-35.296;149.168;2023-04-19T11:10:10;95522.56;;;13.45;60.55
61814;BME280;57055;-35.296;149.168;2023-04-19T11:12:43;95527.89;;;13.40;60.60
61814;BME280;57055;-35.296;149.168;2023-04-19T11:15:12;95530.35;;;13.30;60.72
61814;BME280;57055;-35.296;149.168;2023-04-19T11:17:40;95528.70;;;13.21;60.75
61814;BME280;57055;-35.296;149.168;2023-04-19T11:20:11;95531.96;;;13.16;60.66
61814;BME280;57055;-35.296;149.168;2023-04-19T11:22:41;95533.84;;;13.61;60.86
61814;BME280;57055;-35.296;149.168;2023-04-19T11:25:11;95535.16;;;13.15;60.62
61814;BME280;57055;-35.296;149.168;2023-04-19T11:27:42;95537.78;;;13.35;60.50
61814;BME280;57055;-35.296;149.168;2023-04-19T11:30:12;95539.25;;;13.00;60.81
61814;BME280;57055;-35.296;149.168;2023-04-19T11:32:47;95541.47;;;13.00;60.78
61814;BME280;57055;-35.296;149.168;2023-04-19T11:35:19;95540.30;;;12.87;61.28
61814;BME280;57055;-35.296;149.168;2023-04-19T11:37:49;95542.67;;;12.77;61.57
61814;BME280;57055;-35.296;149.168;2023-04-19T11:40:19;95546.29;;;12.76;61.70
61814;BME280;57055;-35.296;149.168;2023-04-19T11:42:54;95549.17;;;13.04;61.73
61814;BME280;57055;-35.296;149.168;2023-04-19T11:45:26;95547.47;;;12.69;61.95
61814;BME280;57055;-35.296;149.168;2023-04-19T11:47:56;95550.61;;;12.77;61.75
61814;BME280;57055;-35.296;149.168;2023-04-19T11:50:36;95551.64;;;12.83;61.68
61814;BME280;57055;-35.296;149.168;2023-04-19T11:53:15;95552.51;;;12.92;61.48
61814;BME280;57055;-35.296;149.168;2023-04-19T11:55:46;95553.44;;;12.88;62.01
61814;BME280;57055;-35.296;149.168;2023-04-19T11:58:32;95555.74;;;12.87;61.94
61814;BME280;57055;-35.296;149.168;2023-04-19T12:01:05;95555.18;;;12.82;62.29
61814;BME280;57055;-35.296;149.168;2023-04-19T12:03:38;95559.51;;;12.91;62.00
61814;BME280;57055;-35.296;149.168;2023-04-19T12:06:12;95559.60;;;13.27;61.63
61814;BME280;57055;-35.296;149.168;2023-04-19T12:08:44;95560.12;;;13.01;61.85
61814;BME280;57055;-35.296;149.168;2023-04-19T12:11:15;95564.55;;;12.91;62.47
61814;BME280;57055;-35.296;149.168;2023-04-19T12:13:44;95570.04;;;12.97;62.10
61814;BME280;57055;-35.296;149.168;2023-04-19T12:16:14;95575.47;;;13.48;62.30
61814;BME280;57055;-35.296;149.168;2023-04-19T12:18:45;95578.21;;;13.33;62.05
61814;BME280;57055;-35.296;149.168;2023-04-19T12:21:29;95581.76;;;13.06;62.34
61814;BME280;57055;-35.296;149.168;2023-04-19T12:24:00;95580.92;;;13.15;62.08
61814;BME280;57055;-35.296;149.168;2023-04-19T12:26:29;95584.46;;;13.12;62.26
61814;BME280;57055;-35.296;149.168;2023-04-19T12:28:59;95584.85;;;13.13;62.25
61814;BME280;57055;-35.296;149.168;2023-04-19T12:31:30;95582.57;;;13.14;62.37
61814;BME280;57055;-35.296;149.168;2023-04-19T12:33:59;95586.08;;;13.19;62.39
61814;BME280;57055;-35.296;149.168;2023-04-19T12:36:28;95586.37;;;13.25;62.44
61814;BME280;57055;-35.296;149.168;2023-04-19T12:38:57;95581.24;;;13.55;62.60
61814;BME280;57055;-35.296;149.168;2023-04-19T12:41:26;95578.60;;;13.34;62.68
61814;BME280;57055;-35.296;149.168;2023-04-19T12:43:54;95576.52;;;13.36;62.58